createdAt,value
2023-04-14T00:00:47.788Z,65.56
2023-04-14T00:03:16.706Z,65.97
2023-04-14T00:05:44.654Z,66.39
2023-04-14T00:08:12.451Z,66.37
2023-04-14T00:10:41.667Z,66.45
2023-04-14T00:13:09.355Z,67.09
2023-04-14T00:15:37.004Z,66.37
2023-04-14T00:18:04.836Z,66.39
2023-04-14T00:20:32.601Z,66.45
2023-04-14T00:23:00.283Z,65.98
2023-04-14T00:25:27.980Z,66.17
2023-04-14T00:27:57.025Z,66.16
2023-04-14T00:30:24.927Z,65.53
2023-04-14T00:32:52.668Z,65.45
2023-04-14T00:35:20.674Z,65.67
2023-04-14T00:37:48.396Z,65.93
2023-04-14T00:40:16.074Z,66.18
2023-04-14T00:42:45.099Z,66.19
2023-04-14T00:45:15.199Z,65.88
2023-04-14T00:47:46.985Z,65.78
2023-04-14T00:50:15.570Z,65.43
2023-04-14T00:52:44.246Z,65.85
2023-04-14T00:55:12.088Z,66.11
2023-04-14T00:57:40.061Z,66.17
2023-04-14T01:00:08.775Z,66.50
2023-04-14T01:02:38.856Z,66.61
2023-04-14T01:05:06.923Z,66.82
2023-04-14T01:07:34.739Z,67.36
2023-04-14T01:10:02.509Z,66.66
2023-04-14T01:12:40.573Z,67.08
2023-04-14T01:15:13.583Z,67.65
2023-04-14T01:17:50.832Z,66.84
2023-04-14T01:20:24.223Z,66.84
2023-04-14T01:22:55.556Z,67.68
2023-04-14T01:25:52.983Z,67.31
2023-04-14T01:28:35.728Z,67.74
2023-04-14T01:31:20.667Z,67.50
2023-04-14T01:33:51.475Z,67.61
2023-04-14T01:36:23.713Z,67.47
2023-04-14T01:38:51.912Z,67.82
2023-04-14T01:41:19.954Z,67.31
2023-04-14T01:43:51.109Z,67.23
2023-04-14T01:46:21.071Z,67.53
2023-04-14T01:48:49.527Z,67.28
2023-04-14T01:51:19.301Z,66.73
2023-04-14T01:53:47.397Z,67.02
2023-04-14T01:56:16.379Z,67.24
2023-04-14T01:58:45.232Z,67.09
2023-04-14T02:01:13.448Z,67.01
2023-04-14T02:03:43.814Z,66.97
2023-04-14T02:06:12.274Z,66.72
2023-04-14T02:08:40.704Z,66.28
2023-04-14T02:11:09.863Z,66.39
2023-04-14T02:13:39.898Z,66.42
2023-04-14T02:16:08.981Z,66.63
2023-04-14T02:18:36.833Z,66.89
2023-04-14T02:21:06.682Z,67.08
2023-04-14T02:23:34.305Z,67.23
2023-04-14T02:26:05.596Z,67.18
2023-04-14T02:28:35.615Z,66.94
2023-04-14T02:31:07.622Z,66.88
2023-04-14T02:33:37.846Z,66.87
2023-04-14T02:36:10.292Z,66.68
2023-04-14T02:38:39.991Z,66.60
2023-04-14T02:41:09.175Z,66.38
2023-04-14T02:43:43.216Z,66.60
2023-04-14T02:46:12.852Z,67.23
2023-04-14T02:48:42.995Z,67.24
2023-04-14T02:51:13.602Z,67.12
2023-04-14T02:53:41.772Z,67.30
2023-04-14T02:56:09.892Z,67.68
2023-04-14T02:58:38.249Z,67.81
2023-04-14T03:01:06.466Z,67.12
2023-04-14T03:03:37.395Z,67.40
2023-04-14T03:06:06.920Z,66.82
2023-04-14T03:08:36.483Z,67.18
2023-04-14T03:11:06.404Z,67.44
2023-04-14T03:13:35.503Z,67.25
2023-04-14T03:16:04.390Z,67.04
2023-04-14T03:18:33.369Z,66.90
2023-04-14T03:21:02.453Z,66.80
2023-04-14T03:23:30.283Z,67.18
2023-04-14T03:26:00.041Z,66.86
2023-04-14T03:28:30.405Z,67.24
2023-04-14T03:31:01.219Z,66.86
2023-04-14T03:33:30.231Z,67.42
2023-04-14T03:35:58.729Z,67.53
2023-04-14T03:38:28.835Z,67.23
2023-04-14T03:41:01.168Z,67.48
2023-04-14T03:43:29.672Z,66.83
2023-04-14T03:45:58.124Z,66.55
2023-04-14T03:48:27.338Z,66.84
2023-04-14T03:50:56.623Z,66.52
2023-04-14T03:53:24.693Z,66.39
2023-04-14T03:55:53.122Z,66.78
2023-04-14T03:58:22.486Z,66.48
2023-04-14T04:00:50.484Z,66.51
2023-04-14T04:03:19.190Z,66.46
2023-04-14T04:05:47.702Z,66.46
2023-04-14T04:08:15.817Z,66.31
2023-04-14T04:10:44.972Z,66.13
2023-04-14T04:13:17.210Z,65.84
2023-04-14T04:15:46.695Z,66.36
2023-04-14T04:18:16.882Z,66.16
2023-04-14T04:20:46.172Z,65.95
2023-04-14T04:23:14.949Z,66.14
2023-04-14T04:25:42.837Z,66.64
2023-04-14T04:28:10.637Z,66.71
2023-04-14T04:30:40.493Z,66.55
2023-04-14T04:33:10.109Z,66.67
2023-04-14T04:35:37.779Z,66.71
2023-04-14T04:38:05.880Z,66.95
2023-04-14T04:40:37.004Z,66.94
2023-04-14T04:43:04.680Z,66.94
2023-04-14T04:45:46.409Z,67.39
2023-04-14T04:48:15.591Z,67.37
2023-04-14T04:50:43.338Z,67.37
2023-04-14T04:53:12.209Z,67.44
2023-04-14T04:55:41.741Z,66.94
2023-04-14T04:58:09.577Z,67.16
2023-04-14T05:00:37.262Z,67.62
2023-04-14T05:03:05.308Z,67.05
2023-04-14T05:05:37.575Z,67.14
2023-04-14T05:08:05.787Z,67.00
2023-04-14T05:10:35.298Z,67.17
2023-04-14T05:13:02.929Z,66.91
2023-04-14T05:15:30.631Z,67.75
2023-04-14T05:17:59.180Z,67.80
2023-04-14T05:20:26.986Z,67.22
2023-04-14T05:22:56.282Z,67.37
2023-04-14T05:25:23.916Z,67.42
2023-04-14T05:27:51.623Z,67.51
2023-04-14T05:30:19.339Z,67.55
2023-04-14T05:32:47.054Z,67.93
2023-04-14T05:35:14.885Z,68.09
2023-04-14T05:37:42.565Z,68.29
2023-04-14T05:40:13.034Z,68.93
2023-04-14T05:42:41.885Z,69.14
2023-04-14T05:45:10.840Z,69.39
2023-04-14T05:47:39.680Z,69.71
2023-04-14T05:50:08.940Z,69.91
2023-04-14T05:52:36.633Z,70.19
2023-04-14T05:55:04.368Z,70.04
2023-04-14T05:57:33.500Z,70.03
2023-04-14T06:00:01.223Z,70.11
2023-04-14T06:02:29.205Z,70.42
2023-04-14T06:04:57.453Z,70.68
2023-04-14T06:07:25.337Z,70.81
2023-04-14T06:09:53.067Z,70.91
2023-04-14T06:12:20.990Z,70.96
2023-04-14T06:14:50.170Z,70.81
2023-04-14T06:17:17.890Z,71.35
2023-04-14T06:19:46.863Z,71.29
2023-04-14T06:22:16.945Z,71.03
2023-04-14T06:24:45.259Z,71.09
2023-04-14T06:27:13.036Z,71.37
2023-04-14T06:29:40.812Z,71.09
2023-04-14T06:32:10.023Z,71.25
2023-04-14T06:34:37.750Z,71.46
2023-04-14T06:37:05.889Z,71.21
2023-04-14T06:39:33.616Z,70.90
2023-04-14T06:42:01.366Z,70.76
2023-04-14T06:44:29.107Z,70.64
2023-04-14T06:46:57.235Z,70.49
2023-04-14T06:49:26.379Z,70.65
2023-04-14T06:51:54.031Z,70.45
2023-04-14T06:54:21.647Z,70.51
2023-04-14T06:56:49.341Z,70.25
2023-04-14T06:59:16.998Z,70.88
2023-04-14T07:01:44.822Z,70.89
2023-04-14T07:04:14.557Z,70.80
2023-04-14T07:06:43.723Z,70.57
2023-04-14T07:09:11.397Z,70.30
2023-04-14T07:11:40.343Z,70.19
2023-04-14T07:14:08.093Z,69.92
2023-04-14T07:16:35.879Z,70.51
2023-04-14T07:19:03.714Z,70.69
2023-04-14T07:21:31.999Z,70.70
2023-04-14T07:24:01.604Z,70.49
2023-04-14T07:26:29.578Z,70.52
2023-04-14T07:28:57.642Z,69.80
2023-04-14T07:31:25.456Z,69.17
2023-04-14T07:33:53.113Z,69.30
2023-04-14T07:36:20.759Z,69.36
2023-04-14T07:38:51.067Z,70.60
2023-04-14T07:41:20.314Z,70.70
2023-04-14T07:43:47.966Z,69.66
2023-04-14T07:46:15.677Z,68.38
2023-04-14T07:48:43.836Z,67.90
2023-04-14T07:51:12.157Z,69.22
2023-04-14T07:53:43.247Z,69.79
2023-04-14T07:56:11.024Z,69.33
2023-04-14T07:58:40.166Z,68.54
2023-04-14T08:01:08.110Z,67.71
2023-04-14T08:03:37.377Z,68.45
2023-04-14T08:06:06.868Z,67.49
2023-04-14T08:08:35.014Z,68.16
2023-04-14T08:11:02.772Z,68.58
2023-04-14T08:13:30.795Z,66.87
2023-04-14T08:15:59.985Z,67.54
2023-04-14T08:18:27.828Z,66.94
2023-04-14T08:20:55.543Z,67.44
2023-04-14T08:23:23.440Z,66.44
2023-04-14T08:25:51.906Z,64.97
2023-04-14T08:28:19.640Z,66.63
2023-04-14T08:30:47.837Z,65.86
2023-04-14T08:33:16.952Z,66.48
2023-04-14T08:35:44.667Z,66.11
2023-04-14T08:38:12.529Z,65.49
2023-04-14T08:40:41.765Z,64.98
2023-04-14T08:43:10.266Z,63.71
2023-04-14T08:45:39.532Z,63.84
2023-04-14T08:48:07.276Z,63.76
2023-04-14T08:50:38.912Z,61.54
2023-04-14T08:53:10.219Z,62.28
2023-04-14T08:55:39.437Z,59.58
2023-04-14T08:58:10.426Z,60.26
2023-04-14T09:00:38.951Z,58.62
2023-04-14T09:03:07.035Z,58.99
2023-04-14T09:05:34.894Z,59.58
2023-04-14T09:08:04.819Z,60.04
2023-04-14T09:10:33.030Z,58.36
2023-04-14T09:13:01.481Z,59.54
2023-04-14T09:15:29.397Z,54.88
2023-04-14T09:17:57.238Z,55.28
2023-04-14T09:20:35.877Z,57.73
2023-04-14T09:23:10.686Z,54.88
2023-04-14T09:25:39.444Z,56.49
2023-04-14T09:28:07.267Z,55.37
2023-04-14T09:30:35.322Z,54.12
2023-04-14T09:33:06.096Z,55.56
2023-04-14T09:35:44.597Z,55.35
2023-04-14T09:38:13.700Z,54.62
2023-04-14T09:40:43.688Z,53.13
2023-04-14T09:43:24.073Z,50.63
2023-04-14T09:45:52.013Z,53.98
2023-04-14T09:48:20.962Z,51.44
2023-04-14T09:51:07.186Z,51.32
2023-04-14T09:53:37.482Z,50.35
2023-04-14T09:56:06.400Z,49.63
2023-04-14T09:58:35.021Z,52.25
2023-04-14T10:01:04.568Z,51.78
2023-04-14T10:03:37.433Z,50.20
2023-04-14T10:06:09.729Z,50.85
2023-04-14T10:08:42.052Z,53.44
2023-04-14T10:11:18.476Z,52.95
2023-04-14T10:13:46.750Z,49.25
2023-04-14T10:16:14.789Z,51.17
2023-04-14T10:18:42.599Z,48.41
2023-04-14T10:21:11.452Z,46.87
2023-04-14T10:23:41.527Z,47.24
2023-04-14T10:26:10.045Z,46.79
2023-04-14T10:28:39.320Z,46.25
2023-04-14T10:31:10.131Z,46.18
2023-04-14T10:33:38.967Z,45.55
2023-04-14T10:36:07.295Z,45.58
2023-04-14T10:38:43.929Z,45.94
2023-04-14T10:41:12.737Z,46.35
2023-04-14T10:43:41.633Z,46.84
2023-04-14T10:46:11.310Z,47.55
2023-04-14T10:48:41.293Z,48.70
2023-04-14T10:51:10.501Z,47.74
2023-04-14T10:53:40.116Z,47.73
2023-04-14T10:56:09.177Z,46.71
2023-04-14T10:58:37.711Z,46.70
2023-04-14T11:01:26.105Z,45.31
2023-04-14T11:03:55.114Z,44.77
2023-04-14T11:06:52.320Z,45.77
2023-04-14T11:09:25.317Z,44.17
2023-04-14T11:11:55.836Z,45.13
2023-04-14T11:14:27.536Z,46.71
2023-04-14T11:17:04.141Z,45.29
2023-04-14T11:19:33.224Z,44.90
2023-04-14T11:22:01.028Z,43.31
2023-04-14T11:24:30.005Z,44.43
2023-04-14T11:27:00.125Z,44.29
2023-04-14T11:29:27.907Z,43.96
2023-04-14T11:32:02.817Z,44.85
2023-04-14T11:34:30.770Z,42.88
2023-04-14T11:36:58.537Z,45.04
2023-04-14T11:39:26.356Z,44.16
2023-04-14T11:41:54.032Z,42.42
2023-04-14T11:44:23.475Z,43.30
2023-04-14T11:46:51.178Z,45.97
2023-04-14T11:49:20.600Z,43.84
2023-04-14T11:51:49.496Z,45.94
2023-04-14T11:54:17.215Z,43.45
2023-04-14T11:56:45.024Z,43.36
2023-04-14T11:59:12.716Z,44.83
2023-04-14T12:01:41.844Z,44.06
2023-04-14T12:04:10.680Z,43.83
2023-04-14T12:06:39.044Z,43.95
2023-04-14T12:09:09.951Z,42.60
2023-04-14T12:11:37.854Z,42.21
2023-04-14T12:14:05.784Z,42.72
2023-04-14T12:16:33.572Z,43.08
2023-04-14T12:19:03.880Z,43.38
2023-04-14T12:21:32.019Z,43.21
2023-04-14T12:23:59.752Z,43.44
2023-04-14T12:26:28.212Z,42.74
2023-04-14T12:28:59.082Z,43.11
2023-04-14T12:31:31.130Z,42.03
2023-04-14T12:34:06.389Z,42.30
2023-04-14T12:36:48.797Z,44.33
2023-04-14T12:39:18.038Z,43.94
2023-04-14T12:41:45.821Z,43.03
2023-04-14T12:44:16.336Z,42.45
2023-04-14T12:46:48.778Z,42.65
2023-04-14T12:49:36.099Z,42.02
2023-04-14T12:52:04.679Z,42.58
2023-04-14T12:54:49.893Z,41.90
2023-04-14T12:57:17.537Z,42.43
2023-04-14T12:59:45.828Z,40.96
2023-04-14T13:02:14.099Z,42.11
2023-04-14T13:04:43.384Z,42.48
2023-04-14T13:07:11.097Z,41.68
2023-04-14T13:09:38.813Z,43.07
2023-04-14T13:12:06.741Z,41.34
2023-04-14T13:14:34.448Z,42.69
2023-04-14T13:17:02.568Z,43.13
2023-04-14T13:19:30.416Z,43.72
2023-04-14T13:21:59.558Z,42.18
2023-04-14T13:24:27.305Z,41.98
2023-04-14T13:26:54.989Z,41.60
2023-04-14T13:29:22.740Z,42.20
2023-04-14T13:31:50.504Z,42.22
2023-04-14T13:34:18.296Z,42.83
2023-04-14T13:36:45.980Z,42.88
2023-04-14T13:39:15.467Z,42.89
2023-04-14T13:41:43.172Z,43.99
2023-04-14T13:44:10.889Z,43.35
2023-04-14T13:46:41.509Z,41.70
2023-04-14T13:49:09.490Z,42.14
2023-04-14T13:51:37.188Z,43.28
2023-04-14T13:54:04.985Z,42.54
2023-04-14T13:56:34.063Z,39.60
2023-04-14T13:59:02.093Z,41.95
2023-04-14T14:01:30.000Z,41.41
2023-04-14T14:03:57.955Z,42.28
2023-04-14T14:06:26.601Z,40.58
2023-04-14T14:09:05.259Z,40.37
2023-04-14T14:11:35.454Z,39.23
2023-04-14T14:14:03.580Z,40.47
2023-04-14T14:16:37.225Z,40.69
2023-04-14T14:19:07.317Z,41.26
2023-04-14T14:21:35.704Z,41.61
2023-04-14T14:24:03.754Z,41.66
2023-04-14T14:26:31.884Z,41.22
2023-04-14T14:29:01.010Z,40.52
2023-04-14T14:31:28.784Z,39.14
2023-04-14T14:33:56.485Z,40.32
2023-04-14T14:36:24.139Z,40.68
2023-04-14T14:38:51.860Z,40.76
2023-04-14T14:41:19.633Z,40.51
2023-04-14T14:43:47.364Z,39.77
2023-04-14T14:46:16.768Z,39.60
2023-04-14T14:48:44.503Z,39.76
2023-04-14T14:51:12.274Z,37.73
2023-04-14T14:53:39.861Z,37.94
2023-04-14T14:56:08.260Z,39.03
2023-04-14T14:58:36.211Z,38.25
2023-04-14T15:01:06.052Z,38.14
2023-04-14T15:03:35.849Z,39.80
2023-04-14T15:06:03.929Z,38.89
2023-04-14T15:08:31.639Z,38.81
2023-04-14T15:10:59.357Z,39.05
2023-04-14T15:13:29.125Z,39.50
2023-04-14T15:15:56.749Z,38.75
2023-04-14T15:18:24.479Z,38.27
2023-04-14T15:20:55.448Z,38.32
2023-04-14T15:23:23.263Z,38.64
2023-04-14T15:25:51.030Z,38.38
2023-04-14T15:28:18.881Z,39.16
2023-04-14T15:30:46.563Z,39.86
2023-04-14T15:33:14.332Z,39.14
2023-04-14T15:35:42.202Z,39.41
2023-04-14T15:38:11.366Z,38.87
2023-04-14T15:40:39.331Z,38.94
2023-04-14T15:43:07.220Z,39.45
2023-04-14T15:45:34.999Z,38.48
2023-04-14T15:48:02.826Z,37.62
2023-04-14T15:50:30.648Z,37.31
2023-04-14T15:52:58.686Z,39.49
2023-04-14T15:55:28.598Z,38.68
2023-04-14T15:57:56.423Z,38.23
2023-04-14T16:00:24.365Z,38.79
2023-04-14T16:02:52.709Z,37.23
2023-04-14T16:05:20.602Z,37.82
2023-04-14T16:07:48.425Z,36.75
2023-04-14T16:10:16.601Z,38.14
2023-04-14T16:12:45.699Z,39.45
2023-04-14T16:15:13.529Z,38.03
2023-04-14T16:17:42.375Z,38.15
2023-04-14T16:20:11.482Z,37.54
2023-04-14T16:22:39.234Z,38.36
2023-04-14T16:25:07.977Z,38.25
2023-04-14T16:27:35.642Z,38.58
2023-04-14T16:30:05.653Z,39.15
2023-04-14T16:32:33.390Z,38.82
2023-04-14T16:35:01.157Z,39.24
2023-04-14T16:37:28.950Z,38.93
2023-04-14T16:39:57.163Z,37.20
2023-04-14T16:42:26.329Z,38.72
2023-04-14T16:44:54.459Z,39.50
2023-04-14T16:47:24.096Z,37.73
2023-04-14T16:49:52.882Z,38.90
2023-04-14T16:52:20.833Z,37.16
2023-04-14T16:54:48.723Z,38.57
2023-04-14T16:57:16.576Z,37.28
2023-04-14T16:59:46.129Z,36.88
2023-04-14T17:02:13.994Z,38.59
2023-04-14T17:04:43.376Z,37.84
2023-04-14T17:07:11.654Z,36.69
2023-04-14T17:09:39.725Z,36.77
2023-04-14T17:12:07.512Z,38.22
2023-04-14T17:14:35.655Z,36.98
2023-04-14T17:17:03.396Z,37.31
2023-04-14T17:19:31.296Z,37.30
2023-04-14T17:22:00.510Z,37.45
2023-04-14T17:24:28.217Z,37.92
2023-04-14T17:26:57.244Z,38.20
2023-04-14T17:29:24.962Z,37.76
2023-04-14T17:31:52.916Z,37.61
2023-04-14T17:34:20.715Z,38.15
2023-04-14T17:36:49.857Z,38.45
2023-04-14T17:39:21.489Z,37.46
2023-04-14T17:41:49.203Z,38.72
2023-04-14T17:44:16.920Z,37.93
2023-04-14T17:46:46.171Z,38.68
2023-04-14T17:49:13.887Z,37.06
2023-04-14T17:51:41.681Z,38.36
2023-04-14T17:54:09.605Z,37.87
2023-04-14T17:56:38.655Z,37.71
2023-04-14T17:59:06.660Z,38.12
2023-04-14T18:01:34.403Z,37.99
2023-04-14T18:04:04.219Z,38.25
2023-04-14T18:06:33.570Z,38.62
2023-04-14T18:09:01.886Z,39.11
2023-04-14T18:11:30.119Z,38.77
2023-04-14T18:14:00.087Z,39.02
2023-04-14T18:16:28.048Z,39.41
2023-04-14T18:18:55.886Z,40.62
2023-04-14T18:21:23.671Z,39.99
2023-04-14T18:28:53.487Z,40.98
2023-04-14T18:31:22.616Z,40.33
2023-04-14T18:33:50.986Z,40.89
2023-04-14T18:36:18.704Z,41.18
2023-04-14T18:38:46.444Z,41.27
2023-04-14T18:41:14.189Z,41.22
2023-04-14T18:43:41.899Z,41.56
2023-04-14T18:46:09.574Z,41.39
2023-04-14T18:48:40.477Z,41.48
2023-04-14T18:51:10.866Z,41.26
2023-04-14T18:53:41.622Z,41.55
2023-04-14T18:56:09.816Z,41.05
2023-04-14T18:58:38.111Z,41.06
2023-04-14T19:01:05.980Z,41.63
2023-04-14T19:03:33.821Z,41.98
2023-04-14T19:06:02.954Z,42.16
2023-04-14T19:08:30.605Z,41.75
2023-04-14T19:10:59.193Z,41.78
2023-04-14T19:13:27.369Z,41.88
2023-04-14T19:16:05.676Z,42.00
2023-04-14T19:18:34.025Z,42.06
2023-04-14T19:21:03.219Z,41.65
2023-04-14T19:23:31.150Z,42.19
2023-04-14T19:25:58.783Z,42.87
2023-04-14T19:28:27.210Z,42.82
2023-04-14T19:30:55.153Z,43.07
2023-04-14T19:33:23.440Z,43.21
2023-04-14T19:35:52.199Z,42.65
2023-04-14T19:38:21.250Z,42.48
2023-04-14T19:40:49.268Z,42.91
2023-04-14T19:43:17.272Z,42.40
2023-04-14T19:45:52.528Z,42.50
2023-04-14T19:48:23.949Z,43.37
2023-04-14T19:50:54.223Z,42.96
2023-04-14T19:53:24.210Z,43.88
2023-04-14T19:55:53.614Z,43.67
2023-04-14T19:58:21.910Z,43.54
2023-04-14T20:00:51.992Z,44.09
2023-04-14T20:03:20.264Z,44.25
2023-04-14T20:05:51.586Z,43.78
2023-04-14T20:08:20.286Z,44.66
2023-04-14T20:10:52.474Z,45.77
2023-04-14T20:13:21.264Z,45.75
2023-04-14T20:15:49.360Z,45.95
2023-04-14T20:18:18.339Z,45.85
2023-04-14T20:20:46.289Z,44.92
2023-04-14T20:23:14.274Z,44.79
2023-04-14T20:25:43.230Z,44.89
2023-04-14T20:28:12.406Z,45.67
2023-04-14T20:30:40.408Z,45.13
2023-04-14T20:33:08.148Z,46.40
2023-04-14T20:35:36.744Z,45.45
2023-04-14T20:38:04.696Z,45.21
2023-04-14T20:40:32.574Z,44.54
2023-04-14T20:43:00.353Z,44.38
2023-04-14T20:45:29.852Z,45.46
2023-04-14T20:47:57.661Z,45.56
2023-04-14T20:50:25.574Z,45.04
2023-04-14T20:52:53.409Z,45.37
2023-04-14T20:55:22.077Z,45.54
2023-04-14T20:57:49.910Z,45.72
2023-04-14T21:00:18.873Z,44.87
2023-04-14T21:02:48.827Z,45.60
2023-04-14T21:05:17.627Z,46.21
2023-04-14T21:07:45.961Z,46.08
2023-04-14T21:10:15.354Z,45.52
2023-04-14T21:15:11.352Z,44.98
2023-04-14T21:15:54.542Z,45.19
2023-04-14T21:18:22.001Z,45.16
2023-04-14T21:20:49.891Z,45.35
2023-04-14T21:23:18.859Z,45.41
2023-04-14T21:25:46.810Z,44.99
2023-04-14T21:28:14.850Z,45.59
2023-04-14T21:30:42.572Z,45.66
2023-04-14T21:33:10.724Z,45.74
2023-04-14T21:35:39.925Z,46.51
2023-04-14T21:38:08.054Z,46.75
2023-04-14T21:40:35.765Z,46.14
2023-04-14T21:43:03.474Z,46.48
2023-04-14T21:45:31.211Z,46.42
2023-04-14T21:47:59.121Z,46.88
2023-04-14T21:50:26.925Z,46.86
2023-04-14T21:52:56.634Z,46.82
2023-04-14T21:55:24.440Z,47.93
2023-04-14T21:57:52.474Z,48.62
2023-04-14T22:00:21.163Z,48.18
2023-04-14T22:02:49.766Z,48.36
2023-04-14T22:05:17.616Z,47.77
2023-04-14T22:07:46.435Z,48.25
2023-04-14T22:10:15.684Z,48.79
2023-04-14T22:12:44.688Z,49.06
2023-04-14T22:15:12.630Z,48.99
2023-04-14T22:17:41.106Z,48.81
2023-04-14T22:20:10.618Z,49.11
2023-04-14T22:22:38.421Z,49.24
2023-04-14T22:25:06.884Z,48.91
2023-04-14T22:27:36.085Z,48.98
2023-04-14T22:30:04.942Z,49.58
2023-04-14T22:32:33.240Z,49.66
2023-04-14T22:35:00.939Z,50.15
2023-04-14T22:37:28.632Z,51.21
2023-04-14T22:39:56.890Z,51.97
2023-04-14T22:42:26.472Z,51.21
2023-04-14T22:44:55.707Z,51.50
2023-04-14T22:47:23.516Z,51.04
2023-04-14T22:49:51.944Z,50.84
2023-04-14T22:52:19.994Z,51.13
2023-04-14T22:54:48.702Z,51.01
2023-04-14T22:57:16.521Z,51.17
2023-04-14T22:59:44.219Z,51.20
2023-04-14T23:02:13.441Z,51.59
2023-04-14T23:04:41.471Z,51.62
2023-04-14T23:07:09.328Z,51.61
2023-04-14T23:09:37.011Z,51.73
2023-04-14T23:12:04.959Z,52.10
2023-04-14T23:14:33.160Z,52.02
2023-04-14T23:17:00.929Z,52.40
2023-04-14T23:19:32.954Z,52.18
2023-04-14T23:22:00.612Z,53.28
2023-04-14T23:24:29.367Z,52.81
2023-04-14T23:26:57.663Z,53.10
2023-04-14T23:29:25.356Z,52.84
2023-04-14T23:31:53.055Z,53.29
2023-04-14T23:34:21.010Z,53.44
2023-04-14T23:36:50.421Z,53.33
2023-04-14T23:39:18.551Z,53.85
2023-04-14T23:41:46.533Z,53.86
2023-04-14T23:44:14.240Z,53.98
2023-04-14T23:46:42.012Z,54.01
2023-04-14T23:49:23.234Z,54.55
2023-04-14T23:51:53.900Z,54.32
2023-04-14T23:54:21.533Z,54.84
2023-04-14T23:56:49.540Z,55.60
2023-04-14T23:59:17.650Z,55.54
